createdAt,value
2023-05-16T05:01:10.263Z,25.00
2023-05-16T05:02:10.258Z,25.00
2023-05-16T05:03:10.339Z,25.00
2023-05-16T05:04:10.320Z,25.00
2023-05-16T05:05:10.395Z,25.00
2023-05-16T05:06:10.371Z,25.00
2023-05-16T05:07:10.343Z,0.00
2023-05-16T05:08:10.412Z,0.00
2023-05-16T05:09:10.453Z,0.00
2023-05-16T05:10:10.490Z,0.00
2023-05-16T05:11:10.516Z,0.00
2023-05-16T05:12:10.552Z,0.00
2023-05-16T05:13:10.582Z,0.00
2023-05-16T05:14:10.595Z,0.00
2023-05-16T05:15:10.606Z,0.00
2023-05-16T05:16:10.583Z,0.00
2023-05-16T05:17:10.648Z,0.00
2023-05-16T05:18:10.692Z,0.00
2023-05-16T05:19:10.676Z,0.00
2023-05-16T05:20:10.615Z,0.00
2023-05-16T05:22:29.756Z,25.00
2023-05-16T05:23:29.711Z,25.00
2023-05-16T05:24:29.734Z,25.00
2023-05-16T05:25:29.804Z,25.00
2023-05-16T05:26:29.703Z,25.00
2023-05-16T05:27:29.713Z,25.78
2023-05-16T05:28:29.723Z,25.85
2023-05-16T05:29:29.674Z,25.44
2023-05-16T05:30:29.673Z,25.98
2023-05-16T05:31:29.689Z,25.09
2023-05-16T05:32:29.868Z,25.00
2023-05-16T05:33:29.762Z,24.56
2023-05-16T05:34:29.664Z,26.38
2023-05-16T05:35:29.864Z,27.30
2023-05-16T05:36:29.674Z,26.80
2023-05-16T05:37:29.628Z,27.12
2023-05-16T05:38:29.667Z,25.00
2023-05-16T05:39:29.600Z,25.79
2023-05-16T05:40:29.614Z,27.04
2023-05-16T05:41:29.628Z,25.34
2023-05-16T05:42:29.575Z,28.16
2023-05-16T05:43:29.554Z,28.88
2023-05-16T05:44:29.572Z,27.20
2023-05-16T05:45:29.861Z,27.45
2023-05-16T05:46:29.605Z,28.04
2023-05-16T05:47:29.603Z,26.10
2023-05-16T05:48:29.545Z,25.16
2023-05-16T05:49:29.549Z,25.52
2023-05-16T05:50:29.533Z,27.51
2023-05-16T05:51:29.546Z,30.26
2023-05-16T05:52:29.551Z,26.88
2023-05-16T05:53:29.480Z,27.90
2023-05-16T05:54:29.527Z,28.29
2023-05-16T05:55:29.630Z,28.20
2023-05-16T05:56:29.559Z,28.52
2023-05-16T05:57:29.510Z,27.63
2023-05-16T05:58:29.466Z,25.48
2023-05-16T05:59:29.509Z,31.38
2023-05-16T06:00:29.559Z,25.90
2023-05-16T06:01:29.439Z,26.82
2023-05-16T06:02:29.511Z,26.57
2023-05-16T06:03:29.484Z,28.56
2023-05-16T06:04:29.415Z,31.27
2023-05-16T06:05:29.802Z,31.14
2023-05-16T06:06:29.443Z,28.44
2023-05-16T06:07:29.433Z,27.40
2023-05-16T06:08:29.452Z,31.68
2023-05-16T06:09:29.412Z,30.42
2023-05-16T06:10:29.427Z,32.17
2023-05-16T06:11:29.428Z,37.93
2023-05-16T06:12:29.473Z,32.34
2023-05-16T06:13:29.488Z,33.82
2023-05-16T06:14:29.557Z,36.71
2023-05-16T06:15:29.830Z,36.77
2023-05-16T06:16:29.673Z,38.28
2023-05-16T06:17:29.652Z,44.05
2023-05-16T06:18:29.755Z,41.30
2023-05-16T06:19:29.673Z,37.65
2023-05-16T06:20:29.689Z,36.03
2023-05-16T06:21:29.732Z,40.25
2023-05-16T06:22:29.759Z,36.78
2023-05-16T06:23:29.782Z,38.05
2023-05-16T06:24:29.855Z,38.35
2023-05-16T06:25:30.035Z,35.32
2023-05-16T06:26:29.899Z,40.73
2023-05-16T06:27:29.947Z,39.17
2023-05-16T06:28:29.983Z,36.21
2023-05-16T06:29:29.994Z,30.03
2023-05-16T06:30:30.008Z,34.63
2023-05-16T06:31:30.125Z,36.58
2023-05-16T06:32:30.105Z,37.35
2023-05-16T06:33:30.139Z,31.16
2023-05-16T06:34:30.146Z,34.75
2023-05-16T06:35:30.255Z,35.54
2023-05-16T06:36:30.239Z,30.48
2023-05-16T06:37:30.220Z,30.41
2023-05-16T06:38:30.239Z,32.34
2023-05-16T06:39:30.281Z,33.26
2023-05-16T06:40:30.283Z,33.10
2023-05-16T06:41:30.308Z,26.05
2023-05-16T06:42:30.341Z,29.67
2023-05-16T06:43:30.370Z,36.14
2023-05-16T06:44:30.398Z,32.92
2023-05-16T06:45:30.444Z,31.93
2023-05-16T06:46:30.426Z,30.21
2023-05-16T06:47:30.500Z,27.73
2023-05-16T06:48:30.494Z,32.09
2023-05-16T06:49:30.532Z,32.70
2023-05-16T06:50:30.549Z,32.86
2023-05-16T06:51:30.547Z,33.44
2023-05-16T06:52:30.562Z,34.44
2023-05-16T06:53:30.709Z,34.12
2023-05-16T06:54:30.560Z,33.09
2023-05-16T06:55:30.719Z,31.57
2023-05-16T06:56:30.602Z,32.68
2023-05-16T06:57:30.672Z,33.58
2023-05-16T06:58:30.632Z,34.01
2023-05-16T06:59:30.675Z,36.97
2023-05-16T07:00:30.693Z,38.60
2023-05-16T07:01:30.723Z,31.76
2023-05-16T07:02:30.829Z,34.85
2023-05-16T07:03:30.891Z,27.76
2023-05-16T07:04:30.724Z,28.86
2023-05-16T07:05:30.736Z,34.60
2023-05-16T07:06:30.763Z,32.07
2023-05-16T07:07:30.752Z,34.57
2023-05-16T07:08:30.787Z,32.61
2023-05-16T07:09:30.790Z,33.06
2023-05-16T07:10:30.784Z,33.59
2023-05-16T07:11:30.768Z,33.37
2023-05-16T07:12:30.802Z,34.11
2023-05-16T07:13:30.805Z,32.59
2023-05-16T07:14:30.920Z,36.68
2023-05-16T07:15:30.886Z,40.33
2023-05-16T07:16:30.903Z,32.25
2023-05-16T07:17:30.916Z,37.85
2023-05-16T07:18:30.962Z,29.38
2023-05-16T07:19:30.948Z,31.63
2023-05-16T07:20:30.924Z,35.16
2023-05-16T07:21:30.928Z,33.91
2023-05-16T07:22:30.948Z,32.21
2023-05-16T07:23:30.979Z,34.36
2023-05-16T07:24:30.998Z,30.00
2023-05-16T07:25:31.085Z,26.53
2023-05-16T07:26:31.076Z,25.95
2023-05-16T07:27:31.127Z,26.15
2023-05-16T07:28:31.156Z,26.89
2023-05-16T07:29:31.223Z,26.73
2023-05-16T07:30:31.255Z,26.91
2023-05-16T07:31:31.339Z,34.25
2023-05-16T07:32:31.309Z,25.67
2023-05-16T07:33:31.302Z,26.83
2023-05-16T07:34:31.316Z,29.67
2023-05-16T07:35:31.353Z,33.00
2023-05-16T07:36:31.355Z,32.19
2023-05-16T07:37:31.364Z,27.97
2023-05-16T07:38:31.384Z,26.05
2023-05-16T07:39:31.434Z,25.90
2023-05-16T07:40:31.503Z,27.93
2023-05-16T07:41:31.581Z,31.06
2023-05-16T07:42:31.564Z,28.85
2023-05-16T07:43:31.588Z,28.65
2023-05-16T07:44:31.610Z,32.28
2023-05-16T07:45:31.625Z,28.50
2023-05-16T07:46:31.647Z,43.47
2023-05-16T07:47:31.669Z,37.87
2023-05-16T07:48:31.721Z,42.07
2023-05-16T07:49:31.760Z,45.67
2023-05-16T07:50:31.765Z,46.72
2023-05-16T07:51:31.794Z,51.29
2023-05-16T07:52:31.834Z,60.27
2023-05-16T07:53:32.000Z,57.31
2023-05-16T07:54:31.787Z,57.84
2023-05-16T07:55:31.841Z,67.95
2023-05-16T07:56:31.892Z,71.63
2023-05-16T07:57:31.893Z,71.68
2023-05-16T07:58:31.977Z,76.89
2023-05-16T07:59:32.084Z,77.97
2023-05-16T08:00:32.109Z,76.78
2023-05-16T08:01:32.130Z,76.15
2023-05-16T08:02:32.318Z,79.13
2023-05-16T08:03:32.327Z,81.78
2023-05-16T08:04:32.274Z,85.63
2023-05-16T08:05:32.405Z,88.77
2023-05-16T08:06:32.373Z,94.39
2023-05-16T08:07:32.417Z,91.96
2023-05-16T08:08:32.467Z,94.92
2023-05-16T08:09:32.471Z,95.72
2023-05-16T08:10:32.548Z,96.44
2023-05-16T08:11:32.580Z,91.65
2023-05-16T08:12:32.659Z,90.94
2023-05-16T08:13:32.671Z,89.01
2023-05-16T08:14:32.734Z,94.35
2023-05-16T08:15:32.792Z,96.29
2023-05-16T08:16:32.884Z,98.18
2023-05-16T08:17:32.887Z,87.82
2023-05-16T08:18:32.915Z,94.42
2023-05-16T08:19:32.960Z,89.99
2023-05-16T08:20:33.041Z,94.09
2023-05-16T08:21:33.113Z,96.69
2023-05-16T08:22:33.102Z,91.44
2023-05-16T08:23:33.156Z,95.15
2023-05-16T08:24:33.180Z,99.27
2023-05-16T08:25:33.212Z,102.50
2023-05-16T08:26:33.284Z,105.35
2023-05-16T08:27:33.285Z,104.43
2023-05-16T08:28:33.336Z,103.11
2023-05-16T08:29:33.358Z,108.39
2023-05-16T08:30:33.416Z,110.92
2023-05-16T08:31:33.575Z,107.68
2023-05-16T08:32:33.565Z,114.12
2023-05-16T08:33:33.501Z,112.92
2023-05-16T08:34:33.546Z,111.51
2023-05-16T08:35:33.566Z,111.68
2023-05-16T08:36:33.584Z,109.53
2023-05-16T08:37:33.576Z,114.94
2023-05-16T08:38:33.628Z,113.40
2023-05-16T08:39:33.651Z,114.83
2023-05-16T08:40:33.641Z,112.30
2023-05-16T08:41:33.642Z,113.12
2023-05-16T08:42:33.635Z,116.53
2023-05-16T08:43:33.642Z,117.69
2023-05-16T08:44:33.645Z,113.39
2023-05-16T08:45:33.626Z,113.27
2023-05-16T08:46:33.632Z,121.19
2023-05-16T08:47:33.680Z,126.46
2023-05-16T08:48:33.626Z,117.99
2023-05-16T08:49:33.639Z,127.26
2023-05-16T08:50:33.636Z,126.29
2023-05-16T08:51:33.660Z,125.20
2023-05-16T08:52:33.656Z,124.49
2023-05-16T08:53:33.676Z,119.28
2023-05-16T08:54:33.698Z,118.42
2023-05-16T08:55:33.694Z,124.37
2023-05-16T08:56:33.673Z,132.08
2023-05-16T08:57:33.696Z,132.33
2023-05-16T08:58:33.705Z,145.76
2023-05-16T08:59:33.710Z,139.28
2023-05-16T09:00:33.739Z,134.17
2023-05-16T09:01:33.880Z,145.61
2023-05-16T09:02:33.761Z,135.29
2023-05-16T09:03:33.810Z,137.09
2023-05-16T09:04:33.739Z,126.80
2023-05-16T09:05:33.758Z,119.08
2023-05-16T09:06:33.755Z,118.41
2023-05-16T09:07:33.762Z,117.14
2023-05-16T09:08:33.749Z,117.71
2023-05-16T09:09:33.755Z,104.23
2023-05-16T09:10:33.753Z,102.56
2023-05-16T09:11:36.679Z,104.36
2023-05-16T09:12:33.731Z,96.00
2023-05-16T09:13:33.779Z,91.02
2023-05-16T09:14:33.742Z,90.59
2023-05-16T09:15:33.734Z,89.80
2023-05-16T09:16:33.753Z,95.07
2023-05-16T09:17:40.018Z,90.84
2023-05-16T09:18:34.881Z,91.07
2023-05-16T09:19:33.777Z,91.35
2023-05-16T09:20:33.714Z,88.62
2023-05-16T09:21:33.742Z,83.70
2023-05-16T09:22:33.686Z,90.55
2023-05-16T09:23:35.817Z,95.14
2023-05-16T09:24:33.695Z,98.21
2023-05-16T09:25:34.106Z,98.06
2023-05-16T09:26:33.676Z,98.29
2023-05-16T09:27:33.646Z,106.23
2023-05-16T09:28:33.643Z,105.59
2023-05-16T09:29:35.426Z,107.02
2023-05-16T09:30:33.675Z,107.20
2023-05-16T09:31:33.622Z,103.69
2023-05-16T09:32:33.685Z,106.05
2023-05-16T09:33:33.576Z,108.60
2023-05-16T09:34:33.595Z,115.10
2023-05-16T09:36:33.579Z,110.28
2023-05-16T09:37:33.555Z,107.12
2023-05-16T09:38:33.579Z,104.03
2023-05-16T09:39:33.644Z,114.57
2023-05-16T09:40:33.585Z,111.25
2023-05-16T09:41:33.535Z,110.30
2023-05-16T09:42:33.571Z,113.03
2023-05-16T09:43:35.641Z,115.04
2023-05-16T09:44:33.698Z,115.52
2023-05-16T09:45:33.498Z,110.68
2023-05-16T09:46:33.558Z,114.03
2023-05-16T09:47:33.527Z,114.06
2023-05-16T09:48:33.509Z,111.34
2023-05-16T09:49:33.468Z,118.85
2023-05-16T09:50:33.481Z,126.74
2023-05-16T09:51:34.071Z,125.33
2023-05-16T09:52:33.470Z,127.63
2023-05-16T09:53:33.487Z,112.13
2023-05-16T09:54:33.451Z,117.26
2023-05-16T09:55:33.751Z,121.70
2023-05-16T09:56:33.428Z,114.50
2023-05-16T09:57:33.429Z,118.43
2023-05-16T09:58:33.413Z,115.33
2023-05-16T09:59:33.511Z,117.07
2023-05-16T10:00:33.414Z,113.95
2023-05-16T10:01:33.388Z,114.22
2023-05-16T10:02:33.431Z,117.18
2023-05-16T10:03:33.475Z,114.21
2023-05-16T10:04:33.403Z,114.99
2023-05-16T10:05:33.398Z,111.57
2023-05-16T10:06:33.382Z,116.71
2023-05-16T10:07:33.336Z,114.93
2023-05-16T10:08:33.318Z,120.71
2023-05-16T10:09:33.367Z,106.20
2023-05-16T10:10:33.331Z,115.43
2023-05-16T10:11:33.333Z,105.76
2023-05-16T10:12:33.314Z,120.86
2023-05-16T10:13:33.313Z,114.25
2023-05-16T10:14:33.306Z,116.85
2023-05-16T10:15:33.290Z,123.05
2023-05-16T10:16:33.359Z,116.93
2023-05-16T10:17:33.311Z,115.32
2023-05-16T10:18:33.286Z,104.72
2023-05-16T10:19:33.319Z,98.77
2023-05-16T10:20:33.260Z,107.59
2023-05-16T10:21:33.254Z,105.13
2023-05-16T10:22:33.216Z,99.42
2023-05-16T10:23:33.247Z,107.00
2023-05-16T10:24:33.202Z,112.10
2023-05-16T10:25:33.229Z,112.76
2023-05-16T10:26:33.222Z,114.57
2023-05-16T10:27:33.238Z,116.96
2023-05-16T10:28:33.204Z,117.24
2023-05-16T10:29:40.040Z,113.77
2023-05-16T10:30:34.205Z,114.21
2023-05-16T10:31:33.208Z,114.46
2023-05-16T10:32:33.182Z,116.34
2023-05-16T10:33:33.153Z,115.16
2023-05-16T10:34:33.167Z,121.64
2023-05-16T10:35:33.165Z,121.43
2023-05-16T10:36:33.150Z,123.28
2023-05-16T10:37:33.114Z,122.64
2023-05-16T10:38:33.126Z,125.53
2023-05-16T10:39:33.103Z,122.60
2023-05-16T10:40:33.094Z,115.72
2023-05-16T10:41:33.120Z,118.69
2023-05-16T10:42:33.080Z,105.95
2023-05-16T10:43:33.078Z,102.99
2023-05-16T10:44:33.073Z,83.16
2023-05-16T10:45:33.220Z,61.12
2023-05-16T10:46:33.121Z,37.78
2023-05-16T10:47:33.092Z,42.94
2023-05-16T10:48:33.114Z,33.76
2023-05-16T10:49:33.121Z,32.05
2023-05-16T10:50:33.096Z,34.86
2023-05-16T10:51:33.098Z,33.19
2023-05-16T10:52:33.257Z,20.12
2023-05-16T10:53:33.120Z,36.79
2023-05-16T10:54:34.178Z,41.86
2023-05-16T10:55:33.118Z,45.98
2023-05-16T10:56:33.101Z,46.22
2023-05-16T10:57:33.133Z,40.87
2023-05-16T10:58:33.101Z,45.18
2023-05-16T10:59:33.114Z,46.71
2023-05-16T11:00:33.126Z,26.53
2023-05-16T11:01:33.149Z,28.92
2023-05-16T11:02:33.217Z,29.57
2023-05-16T11:03:33.217Z,41.78
2023-05-16T11:04:33.149Z,35.19
2023-05-16T11:05:33.158Z,36.09
2023-05-16T11:06:33.178Z,30.27
2023-05-16T11:07:33.187Z,35.05
2023-05-16T11:08:33.207Z,30.77
2023-05-16T11:09:33.191Z,44.73
2023-05-16T11:10:33.220Z,38.02
2023-05-16T11:11:33.252Z,42.96
2023-05-16T11:12:33.229Z,44.29
2023-05-16T11:13:33.218Z,46.36
2023-05-16T11:14:33.262Z,47.57
2023-05-16T11:15:33.241Z,55.51
2023-05-16T11:16:33.300Z,59.10
2023-05-16T11:17:33.299Z,57.39
2023-05-16T11:18:33.449Z,53.27
2023-05-16T11:19:33.304Z,46.22
2023-05-16T11:20:33.333Z,29.09
2023-05-16T11:21:33.330Z,33.87
2023-05-16T11:22:33.404Z,38.13
2023-05-16T11:23:33.410Z,35.07
2023-05-16T11:24:33.550Z,28.05
2023-05-16T11:25:33.510Z,25.00
2023-05-16T11:26:33.578Z,26.30
2023-05-16T11:27:33.643Z,34.02
2023-05-16T11:28:33.665Z,47.83
2023-05-16T11:29:33.728Z,55.57
2023-05-16T11:30:33.750Z,75.56
2023-05-16T11:31:33.857Z,83.60
2023-05-16T11:32:33.845Z,85.29
2023-05-16T11:33:33.875Z,95.57
2023-05-16T11:34:33.845Z,98.86
2023-05-16T11:35:33.888Z,102.85
2023-05-16T11:36:33.928Z,102.77
2023-05-16T11:37:33.898Z,108.30
2023-05-16T11:38:33.948Z,103.63
2023-05-16T11:39:34.038Z,105.44
2023-05-16T11:40:34.008Z,109.39
2023-05-16T11:41:33.953Z,111.00
2023-05-16T11:42:34.093Z,101.73
2023-05-16T11:43:33.990Z,104.15
2023-05-16T11:44:34.021Z,115.48
2023-05-16T11:45:33.988Z,106.79
2023-05-16T11:46:34.056Z,108.57
2023-05-16T11:47:34.042Z,111.80
2023-05-16T11:48:36.511Z,107.82
2023-05-16T11:49:34.041Z,109.20
2023-05-16T11:50:34.027Z,111.44
2023-05-16T11:51:34.000Z,119.96
2023-05-16T11:52:34.022Z,111.81
2023-05-16T11:53:34.010Z,113.31
2023-05-16T11:54:34.005Z,109.78
2023-05-16T11:55:41.718Z,125.16
2023-05-16T11:56:35.026Z,125.52
2023-05-16T11:57:33.978Z,127.92
2023-05-16T11:58:33.967Z,129.60
2023-05-16T11:59:33.979Z,132.09
2023-05-16T12:00:33.969Z,133.16
2023-05-16T12:01:33.949Z,144.08
2023-05-16T12:02:34.014Z,150.91
2023-05-16T12:03:34.080Z,157.17
2023-05-16T12:04:34.114Z,162.97
2023-05-16T12:05:35.060Z,157.01
2023-05-16T12:06:33.916Z,160.94
2023-05-16T12:07:33.916Z,161.21
2023-05-16T12:08:33.897Z,152.72
2023-05-16T12:09:33.897Z,144.40
2023-05-16T12:10:33.867Z,145.77
2023-05-16T12:11:33.884Z,135.70
2023-05-16T12:12:33.917Z,138.19
2023-05-16T12:13:33.837Z,144.50
2023-05-16T12:14:33.830Z,129.82
2023-05-16T12:15:33.852Z,141.72
2023-05-16T12:16:33.867Z,137.96
2023-05-16T12:17:33.854Z,137.26
2023-05-16T12:18:33.817Z,145.36
2023-05-16T12:19:33.895Z,147.68
2023-05-16T12:20:33.769Z,146.61
2023-05-16T12:21:33.788Z,141.49
2023-05-16T12:22:33.785Z,135.47
2023-05-16T12:23:33.810Z,121.31
2023-05-16T12:24:33.788Z,132.34
2023-05-16T12:25:33.760Z,133.43
2023-05-16T12:26:33.764Z,122.37
2023-05-16T12:27:33.751Z,126.12
2023-05-16T12:28:33.785Z,131.76
2023-05-16T12:29:33.741Z,130.88
2023-05-16T12:30:33.732Z,114.23
2023-05-16T12:31:33.805Z,108.98
2023-05-16T12:32:33.901Z,103.21
2023-05-16T12:33:33.737Z,90.82
2023-05-16T12:34:33.687Z,73.02
2023-05-16T12:35:33.708Z,72.78
2023-05-16T12:36:33.686Z,62.81
2023-05-16T12:37:33.705Z,60.10
2023-05-16T12:38:33.732Z,58.77
2023-05-16T12:39:34.992Z,41.97
2023-05-16T12:40:33.844Z,41.13
2023-05-16T12:41:33.831Z,32.62
2023-05-16T12:42:33.883Z,29.72
2023-05-16T12:43:33.965Z,31.07
2023-05-16T12:44:33.959Z,29.44
2023-05-16T12:45:35.447Z,30.36
2023-05-16T12:46:34.030Z,30.09
2023-05-16T12:47:34.065Z,25.00
2023-05-16T12:48:34.080Z,25.00
2023-05-16T12:49:34.076Z,27.16
2023-05-16T12:50:34.146Z,27.77
2023-05-16T12:51:35.471Z,25.00
2023-05-16T12:52:34.186Z,25.00
2023-05-16T12:53:34.255Z,26.60
2023-05-16T12:54:34.309Z,28.89
2023-05-16T12:55:34.324Z,28.43
2023-05-16T12:56:34.389Z,29.98
2023-05-16T12:57:36.342Z,25.79
2023-05-16T12:58:34.466Z,25.00
2023-05-16T12:59:34.438Z,25.64
2023-05-16T13:00:34.445Z,28.11
2023-05-16T13:01:34.400Z,27.08
2023-05-16T13:02:34.533Z,25.00
2023-05-16T13:03:36.145Z,25.00
2023-05-16T13:04:34.431Z,27.99
2023-05-16T13:05:34.356Z,26.59
2023-05-16T13:06:45.382Z,24.19
2023-05-16T13:07:35.366Z,24.71
2023-05-16T13:08:34.367Z,27.44
2023-05-16T13:09:34.392Z,32.74
2023-05-16T13:10:34.413Z,39.23
2023-05-16T13:11:34.339Z,48.73
2023-05-16T13:12:34.310Z,54.74
2023-05-16T13:13:36.432Z,51.23
2023-05-16T13:14:34.381Z,51.87
2023-05-16T13:15:34.362Z,44.55
2023-05-16T13:16:34.517Z,38.42
2023-05-16T13:17:34.506Z,37.25
2023-05-16T13:18:34.604Z,37.43
2023-05-16T13:19:34.579Z,35.87
2023-05-16T13:20:34.628Z,38.66
2023-05-16T13:21:34.683Z,43.23
2023-05-16T13:22:34.739Z,46.98
2023-05-16T13:23:34.785Z,43.73
2023-05-16T13:24:34.840Z,42.05
2023-05-16T13:25:34.894Z,39.54
2023-05-16T13:26:34.957Z,43.51
2023-05-16T13:27:35.030Z,46.22
2023-05-16T13:28:35.060Z,45.77
2023-05-16T13:29:35.112Z,48.21
2023-05-16T13:30:35.168Z,52.85
2023-05-16T13:31:35.286Z,53.04
2023-05-16T13:32:35.509Z,50.15
2023-05-16T13:33:35.395Z,47.89
2023-05-16T13:34:35.425Z,43.22
2023-05-16T13:35:35.477Z,48.28
2023-05-16T13:36:52.239Z,46.69
2023-05-16T13:37:36.520Z,46.97
2023-05-16T13:38:35.508Z,47.53
2023-05-16T13:39:35.483Z,46.24
2023-05-16T13:40:35.547Z,48.72
2023-05-16T13:41:35.491Z,48.97
2023-05-16T13:42:35.460Z,50.56
2023-05-16T13:43:35.493Z,49.37
2023-05-16T13:44:35.487Z,46.93
2023-05-16T13:45:35.584Z,47.34
2023-05-16T13:46:35.677Z,50.17
2023-05-16T13:47:35.805Z,66.59
2023-05-16T13:48:35.856Z,78.10
2023-05-16T13:49:35.795Z,74.05
2023-05-16T13:50:35.963Z,86.50
2023-05-16T13:51:35.868Z,91.83
2023-05-16T13:52:37.871Z,89.73
2023-05-16T13:53:36.023Z,87.84
2023-05-16T13:54:36.059Z,86.39
2023-05-16T13:55:36.093Z,82.12
2023-05-16T13:56:36.204Z,78.56
2023-05-16T13:57:36.209Z,82.03
2023-05-16T13:58:43.005Z,76.54
2023-05-16T14:00:10.890Z,76.82
2023-05-16T14:01:37.491Z,77.35
2023-05-16T14:02:36.295Z,79.93
2023-05-16T14:03:36.270Z,83.81
2023-05-16T14:04:36.330Z,93.45
2023-05-16T14:05:36.233Z,103.74
2023-05-16T14:06:36.243Z,113.05
2023-05-16T14:07:36.208Z,118.04
2023-05-16T14:08:36.272Z,123.95
2023-05-16T14:09:36.202Z,137.78
2023-05-16T14:10:36.184Z,136.52
2023-05-16T14:11:36.189Z,139.63
2023-05-16T14:12:36.199Z,145.11
2023-05-16T14:13:38.637Z,149.10
2023-05-16T14:14:36.184Z,149.29
2023-05-16T14:15:36.147Z,149.82
2023-05-16T14:16:36.248Z,151.72
2023-05-16T14:17:36.202Z,155.53
2023-05-16T14:18:36.165Z,165.39
2023-05-16T14:19:36.228Z,169.33
2023-05-16T14:20:36.159Z,173.03
2023-05-16T14:21:36.190Z,172.50
2023-05-16T14:22:36.099Z,172.04
2023-05-16T14:23:36.104Z,175.07
2023-05-16T14:24:36.152Z,175.61
2023-05-16T14:25:36.072Z,181.13
2023-05-16T14:26:36.067Z,196.78
2023-05-16T14:27:36.063Z,179.49
2023-05-16T14:28:36.060Z,173.41
2023-05-16T14:29:36.080Z,183.21
2023-05-16T14:30:36.046Z,190.67
2023-05-16T14:31:36.101Z,194.78
2023-05-16T14:32:36.032Z,192.82
2023-05-16T14:33:36.024Z,191.64
2023-05-16T14:34:36.036Z,198.03
2023-05-16T14:35:36.013Z,197.44
2023-05-16T14:36:36.197Z,201.95
2023-05-16T14:37:36.002Z,204.66
2023-05-16T14:38:35.997Z,203.45
2023-05-16T14:39:35.985Z,203.56
2023-05-16T14:40:35.995Z,209.95
2023-05-16T14:41:35.958Z,209.86
2023-05-16T14:42:36.658Z,210.50
2023-05-16T14:43:35.931Z,216.39
2023-05-16T14:44:35.962Z,219.96
2023-05-16T14:45:35.954Z,213.29
2023-05-16T14:46:35.969Z,214.44
2023-05-16T14:47:35.970Z,219.47
2023-05-16T14:48:35.958Z,222.86
2023-05-16T14:49:35.931Z,213.99
2023-05-16T14:50:35.887Z,221.52
2023-05-16T14:51:35.888Z,220.56
2023-05-16T14:52:35.940Z,213.51
2023-05-16T14:53:35.890Z,213.37
2023-05-16T14:54:35.858Z,225.34
2023-05-16T14:55:35.860Z,226.70
2023-05-16T14:56:35.854Z,215.02
2023-05-16T14:57:35.850Z,216.39
2023-05-16T14:58:35.845Z,233.56
2023-05-16T14:59:35.882Z,228.09
2023-05-16T15:00:35.844Z,229.51
2023-05-16T15:01:35.894Z,224.28
2023-05-16T15:02:35.914Z,227.21
2023-05-16T15:03:50.697Z,229.05
2023-05-16T15:04:36.791Z,229.37
2023-05-16T15:05:35.787Z,229.09
2023-05-16T15:06:35.773Z,229.59
2023-05-16T15:07:35.786Z,230.17
2023-05-16T15:08:35.799Z,231.73
2023-05-16T15:09:35.772Z,235.41
2023-05-16T15:10:35.781Z,231.91
2023-05-16T15:11:35.792Z,240.91
2023-05-16T15:12:35.828Z,250.00
2023-05-16T15:13:35.796Z,249.83
2023-05-16T15:14:35.778Z,250.00
2023-05-16T15:15:35.789Z,250.41
2023-05-16T15:16:35.717Z,250.00
2023-05-16T15:17:35.720Z,247.18
2023-05-16T15:18:35.745Z,255.32
2023-05-16T15:19:35.692Z,241.68
2023-05-16T15:20:35.691Z,237.57
2023-05-16T15:21:35.671Z,240.55
2023-05-16T15:22:35.682Z,244.87
2023-05-16T15:23:35.672Z,238.38
2023-05-16T15:24:35.906Z,229.21
2023-05-16T15:25:35.656Z,235.65
2023-05-16T15:26:35.665Z,244.80
2023-05-16T15:27:35.657Z,239.10
2023-05-16T15:28:35.625Z,247.06
2023-05-16T15:29:35.603Z,250.36
2023-05-16T15:30:35.644Z,245.46
2023-05-16T15:31:35.631Z,246.22
2023-05-16T15:32:35.716Z,238.60
2023-05-16T15:33:35.688Z,242.47
2023-05-16T15:34:35.708Z,248.36
2023-05-16T15:35:35.702Z,244.58
2023-05-16T15:36:35.762Z,248.18
2023-05-16T15:37:35.777Z,240.34
2023-05-16T15:38:35.736Z,250.00
2023-05-16T15:39:35.796Z,247.72
2023-05-16T15:40:35.898Z,244.54
2023-05-16T15:42:35.849Z,248.02
2023-05-16T15:43:35.877Z,236.72
2023-05-16T15:44:35.933Z,242.17
2023-05-16T15:45:37.280Z,242.18
2023-05-16T15:46:35.949Z,238.82
2023-05-16T15:47:35.933Z,237.80
2023-05-16T15:48:35.886Z,234.06
2023-05-16T15:49:35.902Z,234.85
2023-05-16T15:50:35.876Z,235.44
2023-05-16T15:51:35.879Z,230.24
2023-05-16T15:52:35.886Z,231.60
2023-05-16T15:53:35.852Z,229.97
2023-05-16T15:54:35.873Z,228.06
2023-05-16T15:55:35.876Z,232.69
2023-05-16T15:56:35.950Z,226.59
2023-05-16T15:57:35.831Z,226.45
2023-05-16T15:58:35.817Z,228.59
2023-05-16T15:59:35.831Z,229.01
2023-05-16T16:00:35.837Z,229.63
2023-05-16T16:01:35.836Z,227.57
2023-05-16T16:02:35.948Z,224.33
2023-05-16T16:03:35.913Z,227.25
2023-05-16T16:04:35.789Z,227.20
2023-05-16T16:05:35.777Z,229.13
2023-05-16T16:06:35.741Z,229.97
2023-05-16T16:07:35.756Z,224.71
2023-05-16T16:08:35.729Z,227.11
2023-05-16T16:09:35.747Z,228.31
2023-05-16T16:10:35.698Z,222.70
2023-05-16T16:11:35.720Z,221.34
2023-05-16T16:12:35.916Z,222.30
2023-05-16T16:13:35.706Z,219.82
2023-05-16T16:14:35.714Z,224.25
2023-05-16T16:15:36.159Z,222.31
2023-05-16T16:16:35.800Z,222.61
2023-05-16T16:17:35.735Z,222.79
2023-05-16T16:18:35.702Z,220.28
2023-05-16T16:19:35.694Z,223.05
2023-05-16T16:20:35.643Z,221.03
2023-05-16T16:21:35.701Z,219.74
2023-05-16T16:22:35.641Z,216.88
2023-05-16T16:23:35.638Z,218.48
2023-05-16T16:24:35.616Z,220.46
2023-05-16T16:25:35.642Z,218.54
2023-05-16T16:26:35.640Z,219.65
2023-05-16T16:27:35.634Z,219.84
2023-05-16T16:28:35.610Z,218.72
2023-05-16T16:29:35.610Z,215.90
2023-05-16T16:30:35.610Z,218.18
2023-05-16T16:31:35.645Z,214.52
2023-05-16T16:32:35.625Z,217.95
2023-05-16T16:33:35.594Z,218.13
2023-05-16T16:34:35.577Z,217.41
2023-05-16T16:35:35.567Z,215.65
2023-05-16T16:36:35.546Z,214.10
2023-05-16T16:37:35.550Z,215.04
2023-05-16T16:38:35.521Z,216.55
2023-05-16T16:39:35.499Z,214.26
2023-05-16T16:40:35.511Z,213.41
2023-05-16T16:41:35.525Z,213.67
2023-05-16T16:42:35.541Z,213.50
2023-05-16T16:43:35.505Z,209.87
2023-05-16T16:44:35.477Z,213.81
2023-05-16T16:45:35.523Z,212.53
2023-05-16T16:46:35.628Z,210.66
2023-05-16T16:47:35.625Z,210.87
2023-05-16T16:48:35.655Z,211.29
2023-05-16T16:49:35.673Z,212.57
2023-05-16T16:50:35.684Z,211.75
2023-05-16T16:51:35.787Z,212.45
2023-05-16T16:52:35.820Z,211.58
2023-05-16T16:53:35.863Z,210.20
2023-05-16T16:54:35.991Z,211.62
2023-05-16T16:55:36.522Z,210.39
2023-05-16T16:56:35.956Z,207.36
2023-05-16T16:57:36.009Z,208.65
2023-05-16T16:58:36.025Z,205.41
2023-05-16T16:59:36.082Z,210.13
2023-05-16T17:00:36.276Z,210.39
